sensor_id;sensor_type;location;lat;lon;timestamp;P1;durP1;ratioP1;P2;durP2;ratioP2
30072;SDS011;16897;52.422;13.678;2022-11-20T00:01:42;7.00;;;4.50;;
30072;SDS011;16897;52.422;13.678;2022-11-20T00:05:43;6.28;;;4.20;;
30072;SDS011;16897;52.422;13.678;2022-11-20T00:09:45;6.22;;;4.05;;
30072;SDS011;16897;52.422;13.678;2022-11-20T00:13:48;5.95;;;4.25;;
30072;SDS011;16897;52.422;13.678;2022-11-20T00:17:55;5.97;;;4.50;;
30072;SDS011;16897;52.422;13.678;2022-11-20T00:21:57;6.45;;;4.15;;
30072;SDS011;16897;52.422;13.678;2022-11-20T00:26:06;7.72;;;4.70;;
30072;SDS011;16897;52.422;13.678;2022-11-20T00:30:11;5.28;;;4.20;;
30072;SDS011;16897;52.422;13.678;2022-11-20T00:34:13;6.28;;;4.53;;
30072;SDS011;16897;52.422;13.678;2022-11-20T00:38:15;6.05;;;4.30;;
30072;SDS011;16897;52.422;13.678;2022-11-20T00:42:17;5.50;;;4.20;;
30072;SDS011;16897;52.422;13.678;2022-11-20T00:46:19;7.10;;;4.57;;
30072;SDS011;16897;52.422;13.678;2022-11-20T00:50:23;8.85;;;5.32;;
30072;SDS011;16897;52.422;13.678;2022-11-20T00:54:25;7.40;;;5.03;;
30072;SDS011;16897;52.422;13.678;2022-11-20T00:58:31;7.38;;;5.47;;
30072;SDS011;16897;52.422;13.678;2022-11-20T01:02:36;6.40;;;4.78;;
30072;SDS011;16897;52.422;13.678;2022-11-20T01:06:39;6.43;;;4.55;;
30072;SDS011;16897;52.422;13.678;2022-11-20T01:10:40;5.68;;;4.72;;
30072;SDS011;16897;52.422;13.678;2022-11-20T01:14:42;7.28;;;4.75;;
30072;SDS011;16897;52.422;13.678;2022-11-20T01:18:45;7.18;;;5.28;;
30072;SDS011;16897;52.422;13.678;2022-11-20T01:22:50;5.40;;;4.10;;
30072;SDS011;16897;52.422;13.678;2022-11-20T01:26:52;6.85;;;5.25;;
30072;SDS011;16897;52.422;13.678;2022-11-20T01:30:54;8.88;;;5.18;;
30072;SDS011;16897;52.422;13.678;2022-11-20T01:34:55;7.20;;;5.03;;
30072;SDS011;16897;52.422;13.678;2022-11-20T01:38:58;7.68;;;5.13;;
30072;SDS011;16897;52.422;13.678;2022-11-20T01:51:51;4.65;;;3.92;;
30072;SDS011;16897;52.422;13.678;2022-11-20T01:56:02;7.03;;;4.38;;
30072;SDS011;16897;52.422;13.678;2022-11-20T02:00:10;7.80;;;5.28;;
30072;SDS011;16897;52.422;13.678;2022-11-20T02:04:26;6.30;;;4.88;;
30072;SDS011;16897;52.422;13.678;2022-11-20T02:08:29;6.40;;;4.88;;
30072;SDS011;16897;52.422;13.678;2022-11-20T02:12:32;5.72;;;4.53;;
30072;SDS011;16897;52.422;13.678;2022-11-20T02:16:52;6.85;;;5.07;;
30072;SDS011;16897;52.422;13.678;2022-11-20T02:20:59;5.88;;;4.78;;
30072;SDS011;16897;52.422;13.678;2022-11-20T02:25:10;7.82;;;5.00;;
30072;SDS011;16897;52.422;13.678;2022-11-20T02:29:13;6.65;;;4.88;;
30072;SDS011;16897;52.422;13.678;2022-11-20T02:33:19;7.35;;;4.63;;
30072;SDS011;16897;52.422;13.678;2022-11-20T02:37:22;6.95;;;5.05;;
30072;SDS011;16897;52.422;13.678;2022-11-20T02:41:33;7.70;;;5.18;;
30072;SDS011;16897;52.422;13.678;2022-11-20T02:45:37;6.68;;;5.25;;
30072;SDS011;16897;52.422;13.678;2022-11-20T02:49:39;7.88;;;5.18;;
30072;SDS011;16897;52.422;13.678;2022-11-20T02:53:41;8.05;;;5.07;;
30072;SDS011;16897;52.422;13.678;2022-11-20T02:57:43;8.05;;;5.28;;
30072;SDS011;16897;52.422;13.678;2022-11-20T03:01:44;7.85;;;5.25;;
30072;SDS011;16897;52.422;13.678;2022-11-20T03:05:46;9.10;;;5.55;;
30072;SDS011;16897;52.422;13.678;2022-11-20T03:09:48;7.50;;;5.43;;
30072;SDS011;16897;52.422;13.678;2022-11-20T03:13:49;6.75;;;4.53;;
30072;SDS011;16897;52.422;13.678;2022-11-20T03:17:54;6.50;;;4.75;;
30072;SDS011;16897;52.422;13.678;2022-11-20T03:21:56;6.53;;;5.07;;
30072;SDS011;16897;52.422;13.678;2022-11-20T03:26:08;7.35;;;5.20;;
30072;SDS011;16897;52.422;13.678;2022-11-20T03:30:17;6.65;;;4.70;;
30072;SDS011;16897;52.422;13.678;2022-11-20T03:34:19;7.70;;;5.07;;
30072;SDS011;16897;52.422;13.678;2022-11-20T03:38:21;6.72;;;4.85;;
30072;SDS011;16897;52.422;13.678;2022-11-20T03:42:22;6.80;;;4.70;;
30072;SDS011;16897;52.422;13.678;2022-11-20T03:46:43;6.22;;;4.75;;
30072;SDS011;16897;52.422;13.678;2022-11-20T03:50:44;7.18;;;4.85;;
30072;SDS011;16897;52.422;13.678;2022-11-20T03:54:48;6.97;;;4.85;;
30072;SDS011;16897;52.422;13.678;2022-11-20T03:58:50;7.43;;;5.20;;
30072;SDS011;16897;52.422;13.678;2022-11-20T04:02:52;7.43;;;5.57;;
30072;SDS011;16897;52.422;13.678;2022-11-20T04:06:54;6.82;;;5.15;;
30072;SDS011;16897;52.422;13.678;2022-11-20T04:10:56;6.68;;;4.82;;
30072;SDS011;16897;52.422;13.678;2022-11-20T04:14:58;6.47;;;4.90;;
30072;SDS011;16897;52.422;13.678;2022-11-20T04:19:01;6.65;;;5.38;;
30072;SDS011;16897;52.422;13.678;2022-11-20T04:23:05;6.65;;;4.63;;
30072;SDS011;16897;52.422;13.678;2022-11-20T04:27:07;5.68;;;4.60;;
30072;SDS011;16897;52.422;13.678;2022-11-20T04:31:10;6.63;;;5.15;;
30072;SDS011;16897;52.422;13.678;2022-11-20T04:35:18;9.55;;;5.82;;
30072;SDS011;16897;52.422;13.678;2022-11-20T04:39:20;8.00;;;4.97;;
30072;SDS011;16897;52.422;13.678;2022-11-20T04:43:21;5.45;;;4.07;;
30072;SDS011;16897;52.422;13.678;2022-11-20T04:47:23;6.43;;;4.75;;
30072;SDS011;16897;52.422;13.678;2022-11-20T04:51:25;6.20;;;4.25;;
30072;SDS011;16897;52.422;13.678;2022-11-20T04:55:27;6.30;;;4.82;;
30072;SDS011;16897;52.422;13.678;2022-11-20T04:59:29;5.35;;;4.43;;
30072;SDS011;16897;52.422;13.678;2022-11-20T05:03:31;6.50;;;4.43;;
30072;SDS011;16897;52.422;13.678;2022-11-20T05:07:33;5.95;;;4.72;;
30072;SDS011;16897;52.422;13.678;2022-11-20T05:11:34;6.93;;;4.53;;
30072;SDS011;16897;52.422;13.678;2022-11-20T05:15:36;5.75;;;4.45;;
30072;SDS011;16897;52.422;13.678;2022-11-20T05:19:38;6.10;;;4.57;;
30072;SDS011;16897;52.422;13.678;2022-11-20T05:23:40;7.43;;;4.88;;
30072;SDS011;16897;52.422;13.678;2022-11-20T05:27:44;8.85;;;5.15;;
30072;SDS011;16897;52.422;13.678;2022-11-20T05:31:45;7.20;;;4.72;;
30072;SDS011;16897;52.422;13.678;2022-11-20T05:35:48;8.35;;;5.10;;
30072;SDS011;16897;52.422;13.678;2022-11-20T05:39:49;7.38;;;5.38;;
30072;SDS011;16897;52.422;13.678;2022-11-20T05:43:51;7.43;;;4.75;;
30072;SDS011;16897;52.422;13.678;2022-11-20T05:47:53;6.43;;;4.75;;
30072;SDS011;16897;52.422;13.678;2022-11-20T05:51:59;7.00;;;4.78;;
30072;SDS011;16897;52.422;13.678;2022-11-20T05:56:02;7.50;;;4.85;;
30072;SDS011;16897;52.422;13.678;2022-11-20T06:00:11;5.60;;;4.57;;
30072;SDS011;16897;52.422;13.678;2022-11-20T06:04:14;8.00;;;5.05;;
30072;SDS011;16897;52.422;13.678;2022-11-20T06:08:15;6.13;;;4.35;;
30072;SDS011;16897;52.422;13.678;2022-11-20T06:12:17;7.85;;;5.20;;
30072;SDS011;16897;52.422;13.678;2022-11-20T06:16:19;9.32;;;5.90;;
30072;SDS011;16897;52.422;13.678;2022-11-20T06:20:22;7.97;;;5.32;;
30072;SDS011;16897;52.422;13.678;2022-11-20T06:24:24;7.07;;;5.40;;
30072;SDS011;16897;52.422;13.678;2022-11-20T06:28:26;7.38;;;5.35;;
30072;SDS011;16897;52.422;13.678;2022-11-20T06:32:28;7.45;;;4.70;;
30072;SDS011;16897;52.422;13.678;2022-11-20T06:36:30;8.57;;;5.15;;
30072;SDS011;16897;52.422;13.678;2022-11-20T06:40:32;6.78;;;4.93;;
30072;SDS011;16897;52.422;13.678;2022-11-20T06:44:34;7.38;;;4.95;;
30072;SDS011;16897;52.422;13.678;2022-11-20T06:48:35;6.72;;;4.85;;
30072;SDS011;16897;52.422;13.678;2022-11-20T06:52:37;8.55;;;5.90;;
30072;SDS011;16897;52.422;13.678;2022-11-20T06:56:39;8.00;;;5.00;;
30072;SDS011;16897;52.422;13.678;2022-11-20T07:00:41;9.10;;;6.60;;
30072;SDS011;16897;52.422;13.678;2022-11-20T07:04:43;9.20;;;6.05;;
30072;SDS011;16897;52.422;13.678;2022-11-20T07:08:44;9.20;;;6.35;;
30072;SDS011;16897;52.422;13.678;2022-11-20T07:12:51;9.98;;;6.38;;
30072;SDS011;16897;52.422;13.678;2022-11-20T07:16:53;9.00;;;6.10;;
30072;SDS011;16897;52.422;13.678;2022-11-20T07:20:56;9.32;;;5.50;;
30072;SDS011;16897;52.422;13.678;2022-11-20T07:25:06;9.35;;;6.63;;
30072;SDS011;16897;52.422;13.678;2022-11-20T07:29:09;7.35;;;5.47;;
30072;SDS011;16897;52.422;13.678;2022-11-20T07:33:11;12.05;;;7.70;;
30072;SDS011;16897;52.422;13.678;2022-11-20T07:37:13;9.80;;;6.60;;
30072;SDS011;16897;52.422;13.678;2022-11-20T07:41:15;9.10;;;5.82;;
30072;SDS011;16897;52.422;13.678;2022-11-20T07:45:21;9.35;;;6.57;;
30072;SDS011;16897;52.422;13.678;2022-11-20T07:49:24;7.63;;;5.95;;
30072;SDS011;16897;52.422;13.678;2022-11-20T07:53:26;8.88;;;6.10;;
30072;SDS011;16897;52.422;13.678;2022-11-20T07:57:28;10.38;;;7.35;;
30072;SDS011;16897;52.422;13.678;2022-11-20T08:01:30;9.85;;;6.63;;
30072;SDS011;16897;52.422;13.678;2022-11-20T08:05:32;8.75;;;6.00;;
30072;SDS011;16897;52.422;13.678;2022-11-20T08:09:33;8.60;;;6.03;;
30072;SDS011;16897;52.422;13.678;2022-11-20T08:13:36;9.32;;;5.70;;
30072;SDS011;16897;52.422;13.678;2022-11-20T08:18:00;8.45;;;5.70;;
30072;SDS011;16897;52.422;13.678;2022-11-20T08:22:09;8.73;;;5.93;;
30072;SDS011;16897;52.422;13.678;2022-11-20T08:26:11;7.43;;;5.40;;
30072;SDS011;16897;52.422;13.678;2022-11-20T08:30:13;10.25;;;6.25;;
30072;SDS011;16897;52.422;13.678;2022-11-20T08:34:14;8.27;;;5.55;;
30072;SDS011;16897;52.422;13.678;2022-11-20T08:38:16;8.95;;;5.75;;
30072;SDS011;16897;52.422;13.678;2022-11-20T08:42:18;8.45;;;5.95;;
30072;SDS011;16897;52.422;13.678;2022-11-20T08:46:20;8.88;;;6.03;;
30072;SDS011;16897;52.422;13.678;2022-11-20T08:50:21;8.45;;;6.25;;
30072;SDS011;16897;52.422;13.678;2022-11-20T08:54:23;10.38;;;6.72;;
30072;SDS011;16897;52.422;13.678;2022-11-20T08:58:25;8.00;;;6.28;;
30072;SDS011;16897;52.422;13.678;2022-11-20T09:02:27;13.63;;;6.57;;
30072;SDS011;16897;52.422;13.678;2022-11-20T09:06:28;9.80;;;7.03;;
30072;SDS011;16897;52.422;13.678;2022-11-20T09:10:30;12.00;;;7.30;;
30072;SDS011;16897;52.422;13.678;2022-11-20T09:14:32;9.65;;;5.78;;
30072;SDS011;16897;52.422;13.678;2022-11-20T09:18:34;9.18;;;6.57;;
30072;SDS011;16897;52.422;13.678;2022-11-20T09:22:39;9.10;;;6.43;;
30072;SDS011;16897;52.422;13.678;2022-11-20T09:26:41;8.50;;;5.40;;
30072;SDS011;16897;52.422;13.678;2022-11-20T09:30:43;8.52;;;6.10;;
30072;SDS011;16897;52.422;13.678;2022-11-20T09:34:44;7.70;;;5.70;;
30072;SDS011;16897;52.422;13.678;2022-11-20T09:38:46;8.45;;;6.10;;
30072;SDS011;16897;52.422;13.678;2022-11-20T09:43:03;10.18;;;6.63;;
30072;SDS011;16897;52.422;13.678;2022-11-20T09:52:01;9.30;;;5.82;;
30072;SDS011;16897;52.422;13.678;2022-11-20T09:56:50;10.45;;;6.55;;
30072;SDS011;16897;52.422;13.678;2022-11-20T10:01:05;10.10;;;6.35;;
30072;SDS011;16897;52.422;13.678;2022-11-20T10:09:34;8.50;;;5.65;;
30072;SDS011;16897;52.422;13.678;2022-11-20T10:18:08;10.07;;;6.53;;
30072;SDS011;16897;52.422;13.678;2022-11-20T10:22:42;10.20;;;6.43;;
30072;SDS011;16897;52.422;13.678;2022-11-20T10:27:39;10.52;;;6.50;;
30072;SDS011;16897;52.422;13.678;2022-11-20T10:32:14;9.82;;;6.47;;
30072;SDS011;16897;52.422;13.678;2022-11-20T10:36:23;10.48;;;7.45;;
30072;SDS011;16897;52.422;13.678;2022-11-20T10:40:35;9.98;;;7.43;;
30072;SDS011;16897;52.422;13.678;2022-11-20T10:44:43;8.50;;;5.75;;
30072;SDS011;16897;52.422;13.678;2022-11-20T10:49:04;10.57;;;6.85;;
30072;SDS011;16897;52.422;13.678;2022-11-20T10:53:24;9.68;;;7.00;;
30072;SDS011;16897;52.422;13.678;2022-11-20T11:02:34;9.52;;;6.32;;
30072;SDS011;16897;52.422;13.678;2022-11-20T11:06:44;9.45;;;6.43;;
30072;SDS011;16897;52.422;13.678;2022-11-20T11:10:57;12.15;;;7.43;;
30072;SDS011;16897;52.422;13.678;2022-11-20T11:15:03;10.15;;;6.70;;
30072;SDS011;16897;52.422;13.678;2022-11-20T11:19:12;12.13;;;6.93;;
30072;SDS011;16897;52.422;13.678;2022-11-20T11:23:22;9.18;;;6.43;;
30072;SDS011;16897;52.422;13.678;2022-11-20T11:27:45;7.15;;;5.40;;
30072;SDS011;16897;52.422;13.678;2022-11-20T11:31:51;9.65;;;6.45;;
30072;SDS011;16897;52.422;13.678;2022-11-20T11:36:16;12.00;;;8.05;;
30072;SDS011;16897;52.422;13.678;2022-11-20T11:40:22;11.88;;;7.40;;
30072;SDS011;16897;52.422;13.678;2022-11-20T11:44:26;11.65;;;6.85;;
30072;SDS011;16897;52.422;13.678;2022-11-20T11:53:08;9.88;;;7.07;;
30072;SDS011;16897;52.422;13.678;2022-11-20T11:57:37;11.15;;;7.25;;
30072;SDS011;16897;52.422;13.678;2022-11-20T12:02:15;10.20;;;6.82;;
30072;SDS011;16897;52.422;13.678;2022-11-20T12:06:46;12.38;;;8.10;;
30072;SDS011;16897;52.422;13.678;2022-11-20T12:11:11;9.15;;;6.50;;
30072;SDS011;16897;52.422;13.678;2022-11-20T12:15:44;10.70;;;6.80;;
30072;SDS011;16897;52.422;13.678;2022-11-20T12:19:48;11.02;;;7.53;;
30072;SDS011;16897;52.422;13.678;2022-11-20T12:28:22;11.07;;;7.35;;
30072;SDS011;16897;52.422;13.678;2022-11-20T12:55:42;9.57;;;6.15;;
30072;SDS011;16897;52.422;13.678;2022-11-20T13:00:23;11.13;;;6.38;;
30072;SDS011;16897;52.422;13.678;2022-11-20T13:08:41;8.82;;;5.88;;
30072;SDS011;16897;52.422;13.678;2022-11-20T13:12:51;9.80;;;5.75;;
30072;SDS011;16897;52.422;13.678;2022-11-20T13:17:36;9.15;;;6.13;;
30072;SDS011;16897;52.422;13.678;2022-11-20T13:21:52;8.68;;;5.90;;
30072;SDS011;16897;52.422;13.678;2022-11-20T13:26:04;8.25;;;5.15;;
30072;SDS011;16897;52.422;13.678;2022-11-20T13:30:24;6.97;;;4.97;;
30072;SDS011;16897;52.422;13.678;2022-11-20T13:34:28;6.40;;;4.72;;
30072;SDS011;16897;52.422;13.678;2022-11-20T13:38:41;5.90;;;4.82;;
30072;SDS011;16897;52.422;13.678;2022-11-20T13:47:47;6.05;;;4.15;;
30072;SDS011;16897;52.422;13.678;2022-11-20T13:51:51;5.57;;;4.38;;
30072;SDS011;16897;52.422;13.678;2022-11-20T13:56:20;6.30;;;4.85;;
30072;SDS011;16897;52.422;13.678;2022-11-20T14:00:43;5.70;;;4.45;;
30072;SDS011;16897;52.422;13.678;2022-11-20T14:04:51;5.40;;;4.28;;
30072;SDS011;16897;52.422;13.678;2022-11-20T14:08:57;6.82;;;5.00;;
30072;SDS011;16897;52.422;13.678;2022-11-20T14:13:09;6.35;;;4.53;;
30072;SDS011;16897;52.422;13.678;2022-11-20T14:17:22;5.60;;;4.00;;
30072;SDS011;16897;52.422;13.678;2022-11-20T14:21:33;6.40;;;4.40;;
30072;SDS011;16897;52.422;13.678;2022-11-20T14:25:35;8.65;;;5.05;;
30072;SDS011;16897;52.422;13.678;2022-11-20T14:29:37;8.85;;;5.28;;
30072;SDS011;16897;52.422;13.678;2022-11-20T14:33:41;9.63;;;6.05;;
30072;SDS011;16897;52.422;13.678;2022-11-20T14:37:42;9.95;;;5.57;;
30072;SDS011;16897;52.422;13.678;2022-11-20T14:41:49;6.95;;;5.38;;
30072;SDS011;16897;52.422;13.678;2022-11-20T14:46:03;7.05;;;5.05;;
30072;SDS011;16897;52.422;13.678;2022-11-20T14:50:24;7.53;;;5.72;;
30072;SDS011;16897;52.422;13.678;2022-11-20T14:54:30;6.80;;;4.95;;
30072;SDS011;16897;52.422;13.678;2022-11-20T14:58:33;7.47;;;5.25;;
30072;SDS011;16897;52.422;13.678;2022-11-20T15:02:38;8.48;;;6.35;;
30072;SDS011;16897;52.422;13.678;2022-11-20T15:06:49;6.90;;;5.10;;
30072;SDS011;16897;52.422;13.678;2022-11-20T15:10:53;6.72;;;5.18;;
30072;SDS011;16897;52.422;13.678;2022-11-20T15:14:56;7.32;;;5.07;;
30072;SDS011;16897;52.422;13.678;2022-11-20T15:18:57;6.70;;;5.82;;
30072;SDS011;16897;52.422;13.678;2022-11-20T15:23:00;8.00;;;5.70;;
30072;SDS011;16897;52.422;13.678;2022-11-20T15:27:02;6.25;;;5.03;;
30072;SDS011;16897;52.422;13.678;2022-11-20T15:31:03;5.72;;;4.53;;
30072;SDS011;16897;52.422;13.678;2022-11-20T15:35:05;9.02;;;6.15;;
30072;SDS011;16897;52.422;13.678;2022-11-20T15:39:08;7.22;;;5.45;;
30072;SDS011;16897;52.422;13.678;2022-11-20T15:43:09;7.82;;;5.25;;
30072;SDS011;16897;52.422;13.678;2022-11-20T15:47:11;6.80;;;4.68;;
30072;SDS011;16897;52.422;13.678;2022-11-20T15:55:25;5.13;;;4.15;;
30072;SDS011;16897;52.422;13.678;2022-11-20T15:59:27;6.80;;;4.78;;
30072;SDS011;16897;52.422;13.678;2022-11-20T16:03:29;6.30;;;4.80;;
30072;SDS011;16897;52.422;13.678;2022-11-20T16:07:31;5.68;;;4.22;;
30072;SDS011;16897;52.422;13.678;2022-11-20T16:11:33;5.55;;;4.22;;
30072;SDS011;16897;52.422;13.678;2022-11-20T16:15:38;5.60;;;4.43;;
30072;SDS011;16897;52.422;13.678;2022-11-20T16:19:45;7.00;;;5.00;;
30072;SDS011;16897;52.422;13.678;2022-11-20T16:23:47;6.50;;;4.95;;
30072;SDS011;16897;52.422;13.678;2022-11-20T16:27:48;6.38;;;4.57;;
30072;SDS011;16897;52.422;13.678;2022-11-20T16:31:50;6.43;;;4.93;;
30072;SDS011;16897;52.422;13.678;2022-11-20T16:35:52;6.13;;;4.97;;
30072;SDS011;16897;52.422;13.678;2022-11-20T16:39:53;8.13;;;5.90;;
30072;SDS011;16897;52.422;13.678;2022-11-20T16:43:57;7.72;;;4.90;;
30072;SDS011;16897;52.422;13.678;2022-11-20T16:48:01;7.85;;;4.93;;
30072;SDS011;16897;52.422;13.678;2022-11-20T16:52:03;5.68;;;4.75;;
30072;SDS011;16897;52.422;13.678;2022-11-20T16:56:16;6.43;;;4.40;;
30072;SDS011;16897;52.422;13.678;2022-11-20T17:00:22;6.82;;;5.03;;
30072;SDS011;16897;52.422;13.678;2022-11-20T17:04:24;9.07;;;4.93;;
30072;SDS011;16897;52.422;13.678;2022-11-20T17:08:27;5.97;;;4.75;;
30072;SDS011;16897;52.422;13.678;2022-11-20T17:12:30;7.55;;;5.65;;
30072;SDS011;16897;52.422;13.678;2022-11-20T17:16:32;8.80;;;5.25;;
30072;SDS011;16897;52.422;13.678;2022-11-20T17:20:35;8.68;;;5.28;;
30072;SDS011;16897;52.422;13.678;2022-11-20T17:24:37;7.38;;;4.40;;
30072;SDS011;16897;52.422;13.678;2022-11-20T17:28:40;5.35;;;4.30;;
30072;SDS011;16897;52.422;13.678;2022-11-20T17:32:46;5.60;;;4.20;;
30072;SDS011;16897;52.422;13.678;2022-11-20T17:36:48;5.35;;;3.97;;
30072;SDS011;16897;52.422;13.678;2022-11-20T17:40:49;5.45;;;4.25;;
30072;SDS011;16897;52.422;13.678;2022-11-20T17:44:51;6.13;;;4.55;;
30072;SDS011;16897;52.422;13.678;2022-11-20T17:48:54;4.97;;;4.28;;
30072;SDS011;16897;52.422;13.678;2022-11-20T17:52:56;7.32;;;3.92;;
30072;SDS011;16897;52.422;13.678;2022-11-20T17:56:58;4.07;;;3.65;;
30072;SDS011;16897;52.422;13.678;2022-11-20T18:01:19;5.15;;;4.13;;
30072;SDS011;16897;52.422;13.678;2022-11-20T18:05:21;6.25;;;4.40;;
30072;SDS011;16897;52.422;13.678;2022-11-20T18:09:22;4.78;;;4.03;;
30072;SDS011;16897;52.422;13.678;2022-11-20T18:13:24;5.57;;;4.55;;
30072;SDS011;16897;52.422;13.678;2022-11-20T18:17:46;5.32;;;4.18;;
30072;SDS011;16897;52.422;13.678;2022-11-20T18:21:48;7.20;;;4.75;;
30072;SDS011;16897;52.422;13.678;2022-11-20T18:25:50;5.57;;;4.40;;
30072;SDS011;16897;52.422;13.678;2022-11-20T18:29:51;6.32;;;5.22;;
30072;SDS011;16897;52.422;13.678;2022-11-20T18:33:54;5.72;;;5.05;;
30072;SDS011;16897;52.422;13.678;2022-11-20T18:37:56;6.10;;;4.43;;
30072;SDS011;16897;52.422;13.678;2022-11-20T18:41:57;6.25;;;4.60;;
30072;SDS011;16897;52.422;13.678;2022-11-20T18:46:17;5.57;;;4.28;;
30072;SDS011;16897;52.422;13.678;2022-11-20T18:50:21;5.85;;;4.68;;
30072;SDS011;16897;52.422;13.678;2022-11-20T18:54:23;5.80;;;4.68;;
30072;SDS011;16897;52.422;13.678;2022-11-20T18:58:26;5.43;;;4.28;;
30072;SDS011;16897;52.422;13.678;2022-11-20T19:02:28;5.60;;;4.53;;
30072;SDS011;16897;52.422;13.678;2022-11-20T19:06:30;7.00;;;4.78;;
30072;SDS011;16897;52.422;13.678;2022-11-20T19:10:31;5.45;;;4.47;;
30072;SDS011;16897;52.422;13.678;2022-11-20T19:14:33;7.25;;;5.40;;
30072;SDS011;16897;52.422;13.678;2022-11-20T19:18:35;8.38;;;4.13;;
30072;SDS011;16897;52.422;13.678;2022-11-20T19:22:36;7.00;;;4.65;;
30072;SDS011;16897;52.422;13.678;2022-11-20T19:26:38;9.85;;;5.25;;
30072;SDS011;16897;52.422;13.678;2022-11-20T19:30:40;9.02;;;5.70;;
30072;SDS011;16897;52.422;13.678;2022-11-20T19:34:42;7.47;;;5.20;;
30072;SDS011;16897;52.422;13.678;2022-11-20T19:38:45;8.40;;;6.22;;
30072;SDS011;16897;52.422;13.678;2022-11-20T19:42:49;8.18;;;5.80;;
30072;SDS011;16897;52.422;13.678;2022-11-20T19:46:51;8.10;;;5.05;;
30072;SDS011;16897;52.422;13.678;2022-11-20T19:50:53;9.57;;;5.82;;
30072;SDS011;16897;52.422;13.678;2022-11-20T19:54:57;9.93;;;6.18;;
30072;SDS011;16897;52.422;13.678;2022-11-20T19:58:59;9.93;;;6.22;;
30072;SDS011;16897;52.422;13.678;2022-11-20T20:03:01;9.90;;;6.55;;
30072;SDS011;16897;52.422;13.678;2022-11-20T20:07:03;7.90;;;5.95;;
30072;SDS011;16897;52.422;13.678;2022-11-20T20:11:09;9.50;;;6.25;;
30072;SDS011;16897;52.422;13.678;2022-11-20T20:15:19;8.90;;;5.90;;
30072;SDS011;16897;52.422;13.678;2022-11-20T20:19:21;8.35;;;5.68;;
30072;SDS011;16897;52.422;13.678;2022-11-20T20:23:23;9.23;;;6.13;;
30072;SDS011;16897;52.422;13.678;2022-11-20T20:27:25;8.98;;;6.13;;
30072;SDS011;16897;52.422;13.678;2022-11-20T20:31:31;9.05;;;6.13;;
30072;SDS011;16897;52.422;13.678;2022-11-20T20:35:41;8.27;;;6.00;;
30072;SDS011;16897;52.422;13.678;2022-11-20T20:39:44;11.07;;;7.32;;
30072;SDS011;16897;52.422;13.678;2022-11-20T20:43:47;10.50;;;7.00;;
30072;SDS011;16897;52.422;13.678;2022-11-20T20:48:08;8.75;;;6.82;;
30072;SDS011;16897;52.422;13.678;2022-11-20T20:52:09;12.27;;;6.65;;
30072;SDS011;16897;52.422;13.678;2022-11-20T20:56:11;11.02;;;6.85;;
30072;SDS011;16897;52.422;13.678;2022-11-20T21:00:13;11.20;;;6.50;;
30072;SDS011;16897;52.422;13.678;2022-11-20T21:04:15;10.82;;;6.63;;
30072;SDS011;16897;52.422;13.678;2022-11-20T21:08:17;8.98;;;5.88;;
30072;SDS011;16897;52.422;13.678;2022-11-20T21:12:22;8.38;;;5.53;;
30072;SDS011;16897;52.422;13.678;2022-11-20T21:16:24;9.30;;;5.43;;
30072;SDS011;16897;52.422;13.678;2022-11-20T21:20:26;7.55;;;5.43;;
30072;SDS011;16897;52.422;13.678;2022-11-20T21:24:46;9.15;;;5.90;;
30072;SDS011;16897;52.422;13.678;2022-11-20T21:28:47;7.53;;;5.50;;
30072;SDS011;16897;52.422;13.678;2022-11-20T21:32:49;7.80;;;5.40;;
30072;SDS011;16897;52.422;13.678;2022-11-20T21:36:51;8.00;;;5.60;;
30072;SDS011;16897;52.422;13.678;2022-11-20T21:40:55;8.77;;;5.75;;
30072;SDS011;16897;52.422;13.678;2022-11-20T21:44:58;8.75;;;5.75;;
30072;SDS011;16897;52.422;13.678;2022-11-20T21:49:00;9.20;;;5.63;;
30072;SDS011;16897;52.422;13.678;2022-11-20T21:53:04;7.30;;;5.30;;
30072;SDS011;16897;52.422;13.678;2022-11-20T21:57:06;8.98;;;6.25;;
30072;SDS011;16897;52.422;13.678;2022-11-20T22:01:08;9.27;;;5.90;;
30072;SDS011;16897;52.422;13.678;2022-11-20T22:05:14;8.68;;;5.90;;
30072;SDS011;16897;52.422;13.678;2022-11-20T22:09:16;7.55;;;4.95;;
30072;SDS011;16897;52.422;13.678;2022-11-20T22:13:18;8.00;;;5.40;;
30072;SDS011;16897;52.422;13.678;2022-11-20T22:17:38;9.45;;;5.85;;
30072;SDS011;16897;52.422;13.678;2022-11-20T22:21:59;9.15;;;5.53;;
30072;SDS011;16897;52.422;13.678;2022-11-20T22:26:02;9.63;;;5.88;;
30072;SDS011;16897;52.422;13.678;2022-11-20T22:30:08;8.73;;;5.75;;
30072;SDS011;16897;52.422;13.678;2022-11-20T22:34:11;9.32;;;6.40;;
30072;SDS011;16897;52.422;13.678;2022-11-20T22:38:14;11.35;;;6.68;;
30072;SDS011;16897;52.422;13.678;2022-11-20T22:42:16;11.88;;;6.68;;
30072;SDS011;16897;52.422;13.678;2022-11-20T22:46:17;11.02;;;6.70;;
30072;SDS011;16897;52.422;13.678;2022-11-20T22:50:19;11.77;;;6.72;;
30072;SDS011;16897;52.422;13.678;2022-11-20T22:54:21;10.32;;;6.30;;
30072;SDS011;16897;52.422;13.678;2022-11-20T22:58:23;8.93;;;5.28;;
30072;SDS011;16897;52.422;13.678;2022-11-20T23:02:27;10.05;;;6.13;;
30072;SDS011;16897;52.422;13.678;2022-11-20T23:06:29;11.20;;;6.40;;
30072;SDS011;16897;52.422;13.678;2022-11-20T23:10:33;9.45;;;6.00;;
30072;SDS011;16897;52.422;13.678;2022-11-20T23:14:35;9.38;;;6.47;;
30072;SDS011;16897;52.422;13.678;2022-11-20T23:18:38;9.65;;;6.18;;
30072;SDS011;16897;52.422;13.678;2022-11-20T23:22:40;9.98;;;6.10;;
30072;SDS011;16897;52.422;13.678;2022-11-20T23:26:41;10.10;;;6.00;;
30072;SDS011;16897;52.422;13.678;2022-11-20T23:30:45;10.25;;;5.93;;
30072;SDS011;16897;52.422;13.678;2022-11-20T23:34:47;9.48;;;6.05;;
30072;SDS011;16897;52.422;13.678;2022-11-20T23:38:49;11.05;;;6.35;;
30072;SDS011;16897;52.422;13.678;2022-11-20T23:42:51;11.07;;;6.50;;
30072;SDS011;16897;52.422;13.678;2022-11-20T23:47:11;9.68;;;6.20;;
30072;SDS011;16897;52.422;13.678;2022-11-20T23:51:13;9.40;;;6.07;;
30072;SDS011;16897;52.422;13.678;2022-11-20T23:55:15;10.05;;;6.32;;
30072;SDS011;16897;52.422;13.678;2022-11-20T23:59:16;7.70;;;5.70;;
